Time;durP1;ratioP1;P1;durP2;ratioP2;P2;SDS_P1;SDS_P2;PMS_P1;PMS_P2;Temp;Humidity;BMP_temperature;BMP_pressure;BME280_temperature;BME280_humidity;BME280_pressure;Samples;Min_cycle;Max_cycle;Signal;HPM_P1;HPM_P2
2023/01/22 00:02:18;;;;;;;17.45;8.52;;;0.50;99.90;;;;;;5057874;23;20065;-64
2023/01/22 00:04:44;;;;;;;12.82;7.82;;;0.50;99.90;;;;;;4987738;28;20053;-64
2023/01/22 00:07:11;;;;;;;14.20;8.25;;;0.50;99.90;;;;;;4981172;28;20050;-64
2023/01/22 00:09:37;;;;;;;15.02;8.13;;;0.40;99.90;;;;;;4971215;28;20085;-64
2023/01/22 00:12:03;;;;;;;10.20;7.60;;;0.40;99.90;;;;;;4971300;28;20132;-64
2023/01/22 00:14:29;;;;;;;13.43;7.93;;;0.40;99.90;;;;;;4989366;28;20393;-64
2023/01/22 00:16:54;;;;;;;15.98;8.07;;;0.30;99.90;;;;;;4961241;28;20053;-64
2023/01/22 00:19:20;;;;;;;12.90;8.75;;;0.40;99.90;;;;;;4988692;28;20054;-64
2023/01/22 00:21:46;;;;;;;17.30;8.70;;;0.40;99.90;;;;;;4991335;28;20052;-64
2023/01/22 00:24:12;;;;;;;11.07;8.00;;;0.40;99.90;;;;;;4991016;28;20085;-64
2023/01/22 00:26:38;;;;;;;15.95;8.63;;;0.40;99.90;;;;;;4991812;28;20046;-64
2023/01/22 00:29:03;;;;;;;16.45;8.15;;;0.40;99.90;;;;;;4991710;28;20506;-64
2023/01/22 00:31:29;;;;;;;23.95;7.90;;;0.40;99.90;;;;;;4991166;28;20725;-64
2023/01/22 00:33:55;;;;;;;17.25;8.50;;;0.50;99.90;;;;;;4970464;28;20034;-64
2023/01/22 00:36:21;;;;;;;13.88;8.00;;;0.50;99.90;;;;;;4983783;28;20050;-64
2023/01/22 00:38:48;;;;;;;12.15;7.60;;;0.50;99.90;;;;;;4990435;28;20108;-64
2023/01/22 00:41:16;;;;;;;15.07;7.88;;;0.60;99.90;;;;;;4992691;28;20097;-64
2023/01/22 00:43:42;;;;;;;13.55;8.40;;;0.60;99.90;;;;;;4991984;28;20039;-64
2023/01/22 00:46:13;;;;;;;15.40;8.30;;;0.70;99.90;;;;;;4992239;28;20121;-64
2023/01/22 00:48:40;;;;;;;11.50;7.80;;;0.70;99.90;;;;;;4992495;28;20034;-64
2023/01/22 00:51:11;;;;;;;10.82;7.07;;;0.70;99.90;;;;;;4974251;28;20050;-64
2023/01/22 00:53:40;;;;;;;12.55;8.25;;;0.70;99.90;;;;;;4990652;28;20056;-64
2023/01/22 00:56:06;;;;;;;19.15;9.98;;;0.80;99.90;;;;;;4973609;28;20066;-64
2023/01/22 00:58:32;;;;;;;13.65;7.53;;;0.80;99.90;;;;;;4992295;28;20117;-64
2023/01/22 01:01:01;;;;;;;21.48;9.68;;;0.80;99.90;;;;;;4955529;28;20065;-64
2023/01/22 01:03:30;;;;;;;13.10;8.60;;;0.60;99.90;;;;;;4991837;28;20081;-64
2023/01/22 01:06:07;;;;;;;14.68;9.05;;;0.60;99.90;;;;;;4990081;28;20058;-64
2023/01/22 01:08:37;;;;;;;13.13;10.02;;;0.60;99.90;;;;;;4991531;28;20074;-64
2023/01/22 01:11:05;;;;;;;17.77;9.32;;;0.60;99.90;;;;;;4991724;28;20050;-64
2023/01/22 01:13:37;;;;;;;22.98;10.27;;;0.60;99.90;;;;;;4973757;28;20054;-64
2023/01/22 01:16:12;;;;;;;15.75;9.75;;;0.70;99.90;;;;;;4991865;28;20519;-64
2023/01/22 01:18:38;;;;;;;17.77;10.48;;;0.70;99.90;;;;;;4973878;28;20063;-64
2023/01/22 01:21:06;;;;;;;14.68;10.10;;;0.80;99.90;;;;;;4974054;28;20065;-64
2023/01/22 01:23:33;;;;;;;17.30;9.88;;;0.80;99.90;;;;;;4974536;28;20061;-64
2023/01/22 01:25:59;;;;;;;14.85;9.07;;;0.90;99.90;;;;;;4990908;28;20124;-64
2023/01/22 01:28:27;;;;;;;14.48;9.52;;;1.00;99.90;;;;;;4991460;28;20125;-64
2023/01/22 01:30:53;;;;;;;15.98;10.30;;;1.00;99.90;;;;;;4972960;28;20081;-64
2023/01/22 01:33:19;;;;;;;22.88;10.38;;;1.00;99.90;;;;;;4990885;28;20101;-64
2023/01/22 01:35:45;;;;;;;19.55;9.75;;;1.00;99.90;;;;;;4990913;28;20049;-64
2023/01/22 01:38:11;;;;;;;15.73;10.15;;;1.00;99.90;;;;;;4990890;28;20125;-64
2023/01/22 01:40:43;;;;;;;13.57;9.07;;;1.10;99.90;;;;;;4991981;28;20456;-64
2023/01/22 01:43:16;;;;;;;19.08;8.27;;;1.10;99.90;;;;;;4990504;28;20082;-64
2023/01/22 01:45:43;;;;;;;13.95;8.85;;;1.20;99.90;;;;;;4991956;28;20579;-64
2023/01/22 01:48:27;;;;;;;17.85;8.50;;;1.20;99.90;;;;;;4990103;28;20105;-64
2023/01/22 01:51:24;;;;;;;10.52;6.63;;;1.20;99.90;;;;;;4979618;28;20042;-64
2023/01/22 01:53:50;;;;;;;12.50;8.23;;;1.20;99.90;;;;;;4987601;28;20451;-63
2023/01/22 01:56:25;;;;;;;9.70;5.35;;;1.30;99.90;;;;;;4990354;28;20868;-64
2023/01/22 01:58:57;;;;;;;13.52;6.63;;;1.30;99.90;;;;;;4991399;28;20046;-64
2023/01/22 02:01:25;;;;;;;12.95;7.30;;;1.30;99.90;;;;;;4990196;28;20062;-64
2023/01/22 02:03:51;;;;;;;11.88;6.13;;;1.30;99.90;;;;;;4991304;28;20412;-64
2023/01/22 02:06:18;;;;;;;9.15;5.88;;;1.30;99.90;;;;;;4990690;28;20056;-64
2023/01/22 02:08:47;;;;;;;10.25;4.75;;;1.30;99.90;;;;;;4973224;28;20054;-64
2023/01/22 02:11:14;;;;;;;13.38;5.30;;;1.30;99.90;;;;;;4991198;28;20473;-64
2023/01/22 02:14:03;;;;;;;9.43;5.13;;;1.30;99.90;;;;;;4990081;28;20034;-64
2023/01/22 02:16:29;;;;;;;11.45;5.35;;;1.30;99.90;;;;;;4990405;28;20058;-64
2023/01/22 02:18:55;;;;;;;11.70;5.00;;;1.30;99.90;;;;;;4972935;28;20046;-63
2023/01/22 02:21:35;;;;;;;11.55;4.70;;;1.40;99.90;;;;;;4990463;28;20057;-64
2023/01/22 02:24:12;;;;;;;7.75;5.03;;;1.30;99.90;;;;;;4990584;28;20579;-64
2023/01/22 02:26:39;;;;;;;5.18;4.68;;;1.40;99.90;;;;;;4989809;28;20516;-64
2023/01/22 02:29:06;;;;;;;7.13;4.57;;;1.40;99.90;;;;;;4990948;28;20050;-64
2023/01/22 02:31:33;;;;;;;11.02;4.88;;;1.40;99.90;;;;;;4989232;28;20088;-64
2023/01/22 02:34:00;;;;;;;6.40;4.90;;;1.40;99.90;;;;;;4991311;28;20486;-64
2023/01/22 02:36:31;;;;;;;7.10;4.10;;;1.40;99.90;;;;;;4989995;28;20057;-64
2023/01/22 02:38:57;;;;;;;6.43;3.65;;;1.40;99.90;;;;;;4972880;28;20054;-64
2023/01/22 02:41:23;;;;;;;7.53;3.88;;;1.40;99.90;;;;;;4972627;28;20128;-64
2023/01/22 02:43:49;;;;;;;6.22;3.72;;;1.40;99.90;;;;;;4988823;28;20042;-64
2023/01/22 02:46:15;;;;;;;6.38;3.13;;;1.40;99.90;;;;;;4990176;28;20384;-64
2023/01/22 02:48:41;;;;;;;6.80;3.95;;;1.50;99.90;;;;;;4989900;28;20048;-64
2023/01/22 02:51:07;;;;;;;6.75;3.88;;;1.40;99.90;;;;;;4990088;28;20039;-64
2023/01/22 02:53:33;;;;;;;8.90;3.90;;;1.50;99.90;;;;;;4990199;28;20046;-63
2023/01/22 02:55:59;;;;;;;4.80;3.13;;;1.50;99.90;;;;;;4990197;28;20070;-64
2023/01/22 02:58:24;;;;;;;4.72;3.05;;;1.50;99.90;;;;;;4990113;28;20553;-64
2023/01/22 03:00:50;;;;;;;2.42;2.22;;;1.50;99.90;;;;;;4971951;28;20424;-64
2023/01/22 03:03:16;;;;;;;5.53;2.95;;;1.50;99.90;;;;;;4989950;28;20085;-63
2023/01/22 03:05:46;;;;;;;6.50;3.63;;;1.50;99.90;;;;;;4971889;28;20042;-63
2023/01/22 03:08:11;;;;;;;6.70;3.88;;;1.50;99.90;;;;;;4989796;28;20046;-64
2023/01/22 03:10:38;;;;;;;9.30;4.18;;;1.60;99.90;;;;;;4989088;28;20093;-63
2023/01/22 03:21:18;;;;;;;7.57;3.88;;;1.40;99.90;;;;;;4989533;28;20054;-64
2023/01/22 03:23:50;;;;;;;4.22;3.03;;;1.50;99.90;;;;;;4989559;28;20042;-64
2023/01/22 03:26:16;;;;;;;3.45;2.90;;;1.50;99.90;;;;;;4955518;28;20054;-64
2023/01/22 03:28:42;;;;;;;10.55;3.50;;;1.50;99.90;;;;;;4972458;28;20188;-64
2023/01/22 03:31:08;;;;;;;5.28;3.20;;;1.50;99.90;;;;;;4970694;28;20131;-64
2023/01/22 03:33:34;;;;;;;7.13;3.47;;;1.50;99.90;;;;;;4971875;28;20572;-63
2023/01/22 03:36:06;;;;;;;5.22;2.97;;;1.50;99.90;;;;;;4988971;28;20122;-64
2023/01/22 03:38:32;;;;;;;7.00;3.03;;;1.50;99.90;;;;;;4989280;28;20070;-64
2023/01/22 03:41:04;;;;;;;7.50;3.50;;;1.50;99.90;;;;;;4988721;28;20081;-64
2023/01/22 03:43:31;;;;;;;7.32;3.33;;;1.60;99.90;;;;;;4971302;28;20050;-64
2023/01/22 03:46:05;;;;;;;6.60;4.13;;;1.50;99.90;;;;;;4989146;28;20440;-63
2023/01/22 03:48:32;;;;;;;13.88;3.33;;;1.60;99.90;;;;;;4986290;28;20049;-64
2023/01/22 03:51:07;;;;;;;6.53;3.33;;;1.50;99.90;;;;;;4989128;28;20424;-64
2023/01/22 03:53:34;;;;;;;12.65;3.95;;;1.60;99.90;;;;;;4969906;28;20516;-64
2023/01/22 03:56:02;;;;;;;7.30;3.40;;;1.50;99.90;;;;;;4989101;28;20046;-64
2023/01/22 03:58:28;;;;;;;7.35;3.33;;;1.50;99.90;;;;;;4988458;28;20133;-63
2023/01/22 04:00:56;;;;;;;6.07;2.92;;;1.50;99.90;;;;;;4954934;28;20173;-64
2023/01/22 04:03:26;;;;;;;7.57;3.10;;;1.50;99.90;;;;;;4988799;28;20058;-63
2023/01/22 04:05:53;;;;;;;8.13;2.83;;;1.50;99.90;;;;;;4988386;28;20057;-63
2023/01/22 04:08:19;;;;;;;5.85;3.10;;;1.50;99.90;;;;;;4988515;28;20526;-63
2023/01/22 04:10:45;;;;;;;4.47;2.53;;;1.50;99.90;;;;;;4970877;28;20050;-64
2023/01/22 04:13:11;;;;;;;5.25;2.42;;;1.50;99.90;;;;;;4989125;28;20389;-63
2023/01/22 04:15:37;;;;;;;6.68;3.05;;;1.40;99.90;;;;;;4954609;28;20492;-64
2023/01/22 04:18:02;;;;;;;10.43;2.88;;;1.50;99.90;;;;;;4975713;28;20057;-64
2023/01/22 04:20:28;;;;;;;8.43;2.67;;;1.50;99.90;;;;;;4989056;28;20404;-63
2023/01/22 04:22:55;;;;;;;7.13;3.00;;;1.50;99.90;;;;;;4988034;28;20045;-63
2023/01/22 04:25:23;;;;;;;4.60;2.78;;;1.50;99.90;;;;;;4988914;28;20054;-64
2023/01/22 04:27:48;;;;;;;5.63;2.97;;;1.50;99.90;;;;;;4970765;28;20073;-64
2023/01/22 04:30:16;;;;;;;6.13;2.97;;;1.50;99.90;;;;;;4989347;28;20129;-63
2023/01/22 04:32:42;;;;;;;5.38;3.10;;;1.50;99.90;;;;;;4987732;28;20046;-64
2023/01/22 04:35:08;;;;;;;7.20;3.20;;;1.50;99.90;;;;;;4988927;28;20129;-63
2023/01/22 04:37:34;;;;;;;5.78;2.83;;;1.50;99.90;;;;;;4988171;28;20054;-63
2023/01/22 04:40:00;;;;;;;3.45;2.63;;;1.50;99.90;;;;;;4988399;28;20051;-63
2023/01/22 04:42:26;;;;;;;8.65;3.58;;;1.40;99.90;;;;;;4988736;28;20056;-64
2023/01/22 04:44:52;;;;;;;7.22;3.55;;;1.40;99.90;;;;;;4954004;28;20060;-63
2023/01/22 04:47:18;;;;;;;7.13;3.35;;;1.40;99.90;;;;;;4989181;28;20054;-64
2023/01/22 04:49:43;;;;;;;4.10;3.67;;;1.40;99.90;;;;;;4987648;28;20039;-63
2023/01/22 04:52:09;;;;;;;4.65;3.13;;;1.40;99.90;;;;;;4989134;28;20136;-64
2023/01/22 04:54:36;;;;;;;10.20;3.00;;;1.40;99.90;;;;;;4987773;28;20042;-63
2023/01/22 04:57:02;;;;;;;4.35;2.95;;;1.30;99.90;;;;;;4970947;28;20053;-63
2023/01/22 04:59:27;;;;;;;4.28;2.67;;;1.30;99.90;;;;;;4988633;28;20050;-63
2023/01/22 05:01:53;;;;;;;4.00;2.85;;;1.40;99.90;;;;;;4987718;28;20050;-63
2023/01/22 05:04:20;;;;;;;4.70;2.88;;;1.30;99.90;;;;;;4971644;28;20053;-64
2023/01/22 05:06:46;;;;;;;7.57;2.70;;;1.30;99.90;;;;;;4986905;28;20056;-64
2023/01/22 05:09:13;;;;;;;5.60;3.22;;;1.30;99.90;;;;;;4992293;28;20101;-63
2023/01/22 05:11:39;;;;;;;9.48;3.63;;;1.30;99.90;;;;;;4973965;28;20829;-64
2023/01/22 05:14:05;;;;;;;5.53;3.75;;;1.30;99.90;;;;;;4992334;28;20045;-63
2023/01/22 05:16:31;;;;;;;9.27;3.90;;;1.30;99.90;;;;;;4991620;28;20046;-63
2023/01/22 05:18:56;;;;;;;4.53;3.20;;;1.30;99.90;;;;;;4991773;28;20496;-63
2023/01/22 05:21:22;;;;;;;4.80;3.60;;;1.30;99.90;;;;;;4990707;28;20130;-63
2023/01/22 05:23:48;;;;;;;8.02;3.70;;;1.20;99.90;;;;;;4990810;28;20073;-64
2023/01/22 05:26:14;;;;;;;3.63;2.80;;;1.20;99.90;;;;;;4974473;28;20125;-63
2023/01/22 05:28:40;;;;;;;6.60;3.03;;;1.20;99.90;;;;;;4990807;28;20151;-63
2023/01/22 05:31:11;;;;;;;7.55;3.10;;;1.20;99.90;;;;;;4992330;28;20046;-63
2023/01/22 05:33:39;;;;;;;5.03;3.13;;;1.20;99.90;;;;;;4991433;28;20386;-63
2023/01/22 05:36:06;;;;;;;4.00;3.17;;;1.10;99.90;;;;;;4990698;28;20052;-64
2023/01/22 05:38:32;;;;;;;6.93;3.75;;;1.10;99.90;;;;;;4991513;28;20404;-63
2023/01/22 05:40:58;;;;;;;4.03;3.03;;;1.10;99.90;;;;;;4989603;28;20057;-63
2023/01/22 05:43:24;;;;;;;7.40;3.45;;;1.10;99.90;;;;;;4991993;28;20124;-63
2023/01/22 05:45:50;;;;;;;7.45;3.58;;;1.10;99.90;;;;;;4990150;28;20113;-64
2023/01/22 05:48:15;;;;;;;5.13;2.90;;;1.00;99.90;;;;;;4991849;28;20062;-63
2023/01/22 05:50:41;;;;;;;5.30;3.15;;;1.00;99.90;;;;;;4990693;28;20054;-63
2023/01/22 05:53:07;;;;;;;4.13;3.03;;;1.00;99.90;;;;;;4990167;28;20061;-64
2023/01/22 05:55:34;;;;;;;5.72;3.53;;;1.00;99.90;;;;;;4973551;28;20050;-63
2023/01/22 05:57:59;;;;;;;3.50;3.10;;;1.00;99.90;;;;;;4990603;28;20389;-63
2023/01/22 06:00:25;;;;;;;3.50;2.58;;;1.00;99.90;;;;;;4974058;28;20495;-63
2023/01/22 06:02:58;;;;;;;8.23;3.22;;;1.00;99.90;;;;;;4972317;28;20069;-63
2023/01/22 06:05:24;;;;;;;5.78;2.58;;;1.00;99.90;;;;;;4991539;28;20176;-63
2023/01/22 06:07:50;;;;;;;7.85;3.40;;;1.00;99.90;;;;;;4989894;28;20056;-63
2023/01/22 06:10:17;;;;;;;6.85;3.00;;;1.00;99.90;;;;;;4973273;28;20050;-63
2023/01/22 06:12:43;;;;;;;7.53;3.25;;;1.00;99.90;;;;;;4990834;28;20046;-63
2023/01/22 06:15:10;;;;;;;9.07;3.30;;;0.90;99.90;;;;;;4990450;28;20097;-63
2023/01/22 06:17:36;;;;;;;4.15;2.97;;;0.90;99.90;;;;;;4972784;28;20086;-64
2023/01/22 06:20:03;;;;;;;3.88;2.80;;;1.00;99.90;;;;;;4989746;28;20569;-63
2023/01/22 06:22:28;;;;;;;10.32;3.70;;;0.90;99.90;;;;;;4991407;28;20050;-64
2023/01/22 06:24:54;;;;;;;6.45;3.17;;;0.90;99.90;;;;;;4989827;28;20474;-64
2023/01/22 06:27:20;;;;;;;3.33;3.00;;;0.90;99.90;;;;;;4973902;28;20050;-63
2023/01/22 06:29:46;;;;;;;6.93;2.30;;;0.90;99.90;;;;;;4989796;28;20369;-63
2023/01/22 06:32:11;;;;;;;4.57;2.63;;;0.90;99.90;;;;;;4973662;28;20124;-63
2023/01/22 06:34:38;;;;;;;6.18;2.80;;;0.90;99.90;;;;;;4989028;28;20050;-63
2023/01/22 06:37:03;;;;;;;8.18;3.22;;;0.80;99.90;;;;;;4989703;28;20050;-63
2023/01/22 06:39:29;;;;;;;3.65;2.97;;;0.80;99.90;;;;;;4990502;28;20046;-64
2023/01/22 06:41:55;;;;;;;4.20;2.65;;;0.80;99.90;;;;;;4989436;28;20421;-64
2023/01/22 06:44:21;;;;;;;3.22;2.78;;;0.80;99.90;;;;;;4989598;28;20057;-63
2023/01/22 06:46:47;;;;;;;4.50;2.95;;;0.90;99.90;;;;;;4989475;28;20054;-63
2023/01/22 06:49:13;;;;;;;4.32;2.70;;;0.80;99.90;;;;;;4990384;28;20129;-63
2023/01/22 06:51:40;;;;;;;6.38;3.22;;;0.80;99.90;;;;;;4989726;28;20046;-63
2023/01/22 06:54:06;;;;;;;3.80;2.60;;;0.80;99.90;;;;;;4989840;28;20122;-64
2023/01/22 06:56:32;;;;;;;7.88;3.38;;;0.80;99.90;;;;;;4990214;28;20050;-64
2023/01/22 06:58:58;;;;;;;3.13;2.88;;;0.80;99.90;;;;;;4989156;28;20278;-63
2023/01/22 07:01:24;;;;;;;5.82;2.88;;;0.80;99.90;;;;;;4988629;28;20065;-64
2023/01/22 07:03:51;;;;;;;3.05;2.75;;;0.80;99.90;;;;;;4987741;28;20081;-63
2023/01/22 07:06:17;;;;;;;4.55;3.17;;;0.80;99.90;;;;;;4989232;28;20047;-63
2023/01/22 07:08:44;;;;;;;3.33;2.97;;;0.80;99.90;;;;;;4970180;28;20030;-63
2023/01/22 07:11:10;;;;;;;6.75;3.33;;;0.80;99.90;;;;;;4988756;28;20049;-63
2023/01/22 07:13:36;;;;;;;7.10;3.03;;;0.80;99.90;;;;;;4970955;28;20493;-63
2023/01/22 07:16:03;;;;;;;2.92;2.63;;;0.80;99.90;;;;;;4987793;28;20415;-64
2023/01/22 07:18:29;;;;;;;4.53;3.30;;;0.80;99.90;;;;;;4971451;28;20049;-63
2023/01/22 07:21:00;;;;;;;4.53;2.78;;;0.80;99.90;;;;;;4969071;28;20057;-64
2023/01/22 07:23:25;;;;;;;4.25;3.38;;;0.80;99.90;;;;;;4988963;28;20039;-63
2023/01/22 07:25:51;;;;;;;4.05;3.00;;;0.80;99.90;;;;;;4987441;28;20069;-64
2023/01/22 07:28:17;;;;;;;4.47;3.40;;;0.80;99.90;;;;;;4988534;28;20560;-63
2023/01/22 07:30:45;;;;;;;5.20;3.42;;;0.80;99.90;;;;;;4986845;28;20046;-63
2023/01/22 07:33:12;;;;;;;4.47;3.38;;;0.80;99.90;;;;;;4987865;28;20133;-63
2023/01/22 07:35:39;;;;;;;3.97;3.20;;;0.80;99.90;;;;;;4988159;28;20640;-64
2023/01/22 07:38:05;;;;;;;4.53;3.45;;;0.80;99.90;;;;;;4987193;28;20396;-63
2023/01/22 07:40:32;;;;;;;7.57;2.97;;;0.80;99.90;;;;;;4988377;28;20403;-63
2023/01/22 07:42:58;;;;;;;6.55;2.92;;;0.80;99.90;;;;;;4987254;28;20050;-63
2023/01/22 07:45:25;;;;;;;7.47;3.15;;;0.80;99.90;;;;;;4954300;28;20521;-64
2023/01/22 07:47:56;;;;;;;3.67;3.03;;;0.80;99.90;;;;;;4987310;28;20427;-63
2023/01/22 07:50:24;;;;;;;3.60;2.97;;;0.80;99.90;;;;;;4970209;28;20053;-64
2023/01/22 07:52:49;;;;;;;4.18;3.65;;;0.80;99.90;;;;;;4969936;28;20054;-63
2023/01/22 07:55:16;;;;;;;5.72;3.42;;;0.80;99.90;;;;;;4987580;28;20042;-64
2023/01/22 07:57:42;;;;;;;6.28;3.92;;;0.80;99.90;;;;;;4988033;28;20050;-64
2023/01/22 08:00:09;;;;;;;5.32;3.78;;;0.80;99.90;;;;;;4986553;28;20046;-64
2023/01/22 08:02:37;;;;;;;7.75;3.67;;;0.80;99.90;;;;;;4986382;28;20137;-64
2023/01/22 08:05:03;;;;;;;8.80;3.53;;;0.80;99.90;;;;;;4986556;28;20041;-63
2023/01/22 08:07:29;;;;;;;7.80;3.53;;;0.90;99.90;;;;;;4986243;28;20046;-64
2023/01/22 08:09:55;;;;;;;4.72;3.15;;;0.90;99.90;;;;;;4986136;28;20046;-64
2023/01/22 08:12:21;;;;;;;3.28;2.97;;;0.90;99.90;;;;;;4986416;28;20081;-64
2023/01/22 08:14:47;;;;;;;6.60;3.40;;;0.90;99.90;;;;;;4987778;28;20053;-63
2023/01/22 08:17:12;;;;;;;6.20;3.60;;;0.90;99.90;;;;;;4986919;28;20046;-63
2023/01/22 08:19:38;;;;;;;5.05;3.28;;;0.90;99.90;;;;;;4987681;28;20477;-63
2023/01/22 08:22:04;;;;;;;4.18;3.40;;;0.90;99.90;;;;;;4986870;28;20432;-64
2023/01/22 08:24:30;;;;;;;4.32;3.67;;;0.90;99.90;;;;;;4970002;28;20392;-63
2023/01/22 08:26:57;;;;;;;3.53;3.28;;;0.90;99.90;;;;;;4986816;28;20121;-63
2023/01/22 08:29:23;;;;;;;5.72;3.92;;;0.90;99.90;;;;;;4987286;28;20043;-63
2023/01/22 08:31:52;;;;;;;4.97;2.92;;;0.90;99.90;;;;;;4986782;28;20038;-63
2023/01/22 08:34:18;;;;;;;4.68;3.40;;;1.00;99.90;;;;;;4987036;28;20043;-63
2023/01/22 08:36:44;;;;;;;7.78;3.70;;;1.00;99.90;;;;;;4984713;28;20050;-63
2023/01/22 08:39:10;;;;;;;5.82;3.63;;;1.00;99.90;;;;;;4968378;28;20042;-63
2023/01/22 08:41:36;;;;;;;4.25;3.13;;;1.00;99.90;;;;;;4977835;28;20705;-63
2023/01/22 08:44:02;;;;;;;4.43;3.85;;;1.10;99.90;;;;;;4990293;28;20534;-63
2023/01/22 08:46:28;;;;;;;5.25;3.38;;;1.10;99.90;;;;;;4990681;28;20491;-63
2023/01/22 08:48:54;;;;;;;8.23;4.25;;;1.10;99.90;;;;;;4990770;28;20085;-63
2023/01/22 08:51:21;;;;;;;3.78;3.38;;;1.00;99.90;;;;;;4990847;28;20339;-63
2023/01/22 08:53:47;;;;;;;5.05;3.17;;;1.00;99.90;;;;;;4989731;28;20049;-64
2023/01/22 08:56:13;;;;;;;7.28;3.30;;;1.00;99.90;;;;;;4967790;28;20126;-63
2023/01/22 08:58:38;;;;;;;4.65;3.28;;;1.00;99.90;;;;;;4965103;28;20119;-63
2023/01/22 09:01:04;;;;;;;9.32;3.83;;;1.00;99.90;;;;;;4987308;28;20137;-63
2023/01/22 09:03:30;;;;;;;5.38;3.67;;;1.00;99.90;;;;;;4972503;28;20135;-63
2023/01/22 09:05:57;;;;;;;6.88;3.55;;;1.00;99.90;;;;;;4989568;28;20042;-63
2023/01/22 09:08:23;;;;;;;9.07;3.30;;;1.00;99.90;;;;;;4989902;28;20040;-63
2023/01/22 09:10:49;;;;;;;4.18;3.65;;;1.00;99.90;;;;;;4990725;28;20057;-63
2023/01/22 09:13:15;;;;;;;5.43;3.42;;;1.10;99.90;;;;;;4988433;28;20050;-64
2023/01/22 09:15:41;;;;;;;8.20;4.00;;;1.10;99.90;;;;;;4956940;28;20420;-64
2023/01/22 09:18:07;;;;;;;7.75;4.18;;;1.10;99.90;;;;;;4972074;28;20042;-63
2023/01/22 09:20:33;;;;;;;6.40;4.43;;;1.10;99.90;;;;;;4988996;28;20042;-63
2023/01/22 09:22:58;;;;;;;6.40;3.63;;;1.10;99.90;;;;;;4986420;28;20054;-63
2023/01/22 09:25:25;;;;;;;4.47;3.97;;;1.10;99.90;;;;;;4985376;28;20046;-63
2023/01/22 09:27:57;;;;;;;5.32;4.53;;;1.20;99.90;;;;;;4990063;28;20046;-63
2023/01/22 09:30:31;;;;;;;3.70;3.40;;;1.20;99.90;;;;;;4988467;28;20108;-63
2023/01/22 09:32:56;;;;;;;5.43;4.38;;;1.20;99.90;;;;;;4990367;28;20046;-63
2023/01/22 09:35:22;;;;;;;5.32;4.82;;;1.30;99.90;;;;;;4971934;28;20543;-63
2023/01/22 09:37:48;;;;;;;4.65;4.15;;;1.30;99.90;;;;;;4990330;28;20101;-63
2023/01/22 09:40:35;;;;;;;4.05;3.63;;;1.20;99.90;;;;;;4971881;28;20381;-63
2023/01/22 09:43:08;;;;;;;4.47;3.72;;;1.30;99.90;;;;;;4976384;28;20061;-63
2023/01/22 09:45:37;;;;;;;6.10;4.45;;;1.30;99.90;;;;;;4972366;28;20378;-63
2023/01/22 09:48:11;;;;;;;5.60;3.90;;;1.30;99.90;;;;;;4974420;28;20042;-63
2023/01/22 09:50:37;;;;;;;5.32;4.13;;;1.40;99.90;;;;;;4989564;28;20078;-63
2023/01/22 09:53:06;;;;;;;4.88;3.88;;;1.40;99.90;;;;;;4988195;28;20038;-63
2023/01/22 09:55:46;;;;;;;4.75;3.40;;;1.40;99.90;;;;;;4987103;28;20192;-64
2023/01/22 09:58:17;;;;;;;7.22;4.20;;;1.40;99.90;;;;;;4988695;28;20050;-63
2023/01/22 10:01:05;;;;;;;9.05;4.45;;;1.40;99.90;;;;;;4984889;28;20046;-63
2023/01/22 10:03:35;;;;;;;7.97;3.50;;;1.50;99.90;;;;;;4989147;28;20073;-63
2023/01/22 10:06:08;;;;;;;6.63;4.05;;;1.50;99.90;;;;;;4989567;28;20046;-63
2023/01/22 10:09:01;;;;;;;4.60;4.00;;;1.60;99.90;;;;;;4987726;28;20620;-63
2023/01/22 10:11:27;;;;;;;6.43;4.10;;;1.70;99.90;;;;;;4977074;28;20493;-63
2023/01/22 10:13:57;;;;;;;6.13;3.90;;;1.60;99.90;;;;;;4988741;28;20559;-63
2023/01/22 10:16:23;;;;;;;7.47;4.77;;;1.60;99.90;;;;;;4984707;28;20046;-63
2023/01/22 10:19:03;;;;;;;6.13;4.10;;;1.60;99.90;;;;;;4971843;28;20054;-63
2023/01/22 10:21:40;;;;;;;6.57;4.40;;;1.60;99.90;;;;;;4965530;28;20050;-63
2023/01/22 10:24:09;;;;;;;4.38;3.97;;;1.70;99.90;;;;;;4989187;28;20065;-63
2023/01/22 10:26:38;;;;;;;6.97;4.28;;;1.70;99.90;;;;;;4982931;28;20050;-63
2023/01/22 10:29:07;;;;;;;9.05;4.80;;;1.70;99.90;;;;;;4972278;28;20042;-63
2023/01/22 10:31:36;;;;;;;7.50;5.45;;;1.70;99.90;;;;;;4949687;28;20054;-63
2023/01/22 10:34:30;;;;;;;6.10;4.25;;;1.70;99.90;;;;;;4971757;28;20058;-63
2023/01/22 10:37:08;;;;;;;4.35;3.50;;;1.70;99.90;;;;;;4981887;28;20061;-63
2023/01/22 10:39:42;;;;;;;4.20;3.80;;;1.70;99.90;;;;;;4988236;28;20042;-63
2023/01/22 10:42:23;;;;;;;5.95;4.15;;;1.70;99.90;;;;;;4980876;28;20088;-63
2023/01/22 10:44:52;;;;;;;4.78;4.38;;;1.70;99.90;;;;;;4970368;28;20100;-63
2023/01/22 10:47:26;;;;;;;8.77;3.65;;;1.70;99.90;;;;;;4979440;28;20046;-63
2023/01/22 10:50:03;;;;;;;5.95;4.30;;;1.90;99.90;;;;;;4988160;28;20468;-63
2023/01/22 10:52:40;;;;;;;8.88;4.57;;;1.90;99.90;;;;;;4983901;28;20109;-63
2023/01/22 10:55:17;;;;;;;7.75;3.88;;;2.00;99.90;;;;;;4986335;28;20121;-63
2023/01/22 10:57:51;;;;;;;5.85;4.10;;;2.00;99.90;;;;;;4977439;28;20355;-63
2023/01/22 11:00:33;;;;;;;3.60;2.55;;;2.00;99.90;;;;;;4988308;28;20404;-63
2023/01/22 11:02:59;;;;;;;7.97;4.45;;;2.00;99.90;;;;;;4987812;28;20062;-63
2023/01/22 11:05:31;;;;;;;7.30;5.13;;;2.10;99.90;;;;;;4985264;28;20124;-63
2023/01/22 11:08:01;;;;;;;4.80;4.40;;;2.10;99.90;;;;;;4980305;28;20061;-63
2023/01/22 11:10:40;;;;;;;7.82;4.22;;;2.10;99.90;;;;;;4987164;28;20038;-63
2023/01/22 11:13:20;;;;;;;5.60;4.07;;;2.10;99.90;;;;;;4988508;28;20050;-63
2023/01/22 11:16:04;;;;;;;4.90;4.25;;;2.10;99.90;;;;;;4986365;28;20512;-63
2023/01/22 11:18:32;;;;;;;5.70;3.92;;;2.20;99.90;;;;;;4985614;28;20431;-63
2023/01/22 11:21:00;;;;;;;5.90;4.35;;;2.20;99.90;;;;;;4970081;28;20042;-63
2023/01/22 11:23:46;;;;;;;6.82;4.47;;;2.20;99.90;;;;;;4986419;28;20042;-63
2023/01/22 11:26:24;;;;;;;5.03;4.03;;;2.30;99.90;;;;;;4969522;28;20074;-63
2023/01/22 11:29:24;;;;;;;4.68;3.67;;;2.20;99.90;;;;;;4987881;28;20133;-63
2023/01/22 11:32:16;;;;;;;7.03;4.15;;;2.30;99.90;;;;;;4986170;28;20117;-64
2023/01/22 11:34:47;;;;;;;5.28;3.85;;;2.40;99.90;;;;;;4987008;28;20053;-63
2023/01/22 11:37:19;;;;;;;6.97;3.50;;;2.40;99.90;;;;;;4987368;28;20174;-63
2023/01/22 11:39:48;;;;;;;7.57;4.20;;;2.50;99.90;;;;;;4986792;28;20100;-63
2023/01/22 11:42:32;;;;;;;8.57;3.90;;;2.40;99.90;;;;;;4980223;28;20054;-63
2023/01/22 11:45:35;;;;;;;4.70;3.33;;;2.50;99.90;;;;;;4985896;28;20097;-63
2023/01/22 11:48:12;;;;;;;4.22;3.78;;;2.40;99.90;;;;;;4986869;28;20726;-63
2023/01/22 11:50:48;;;;;;;7.05;4.40;;;2.40;99.90;;;;;;4968012;28;20034;-63
2023/01/22 11:53:52;;;;;;;5.35;4.53;;;2.40;99.90;;;;;;4984975;28;20061;-63
2023/01/22 11:56:33;;;;;;;8.13;4.65;;;2.40;99.90;;;;;;4980230;28;20531;-63
2023/01/22 11:59:12;;;;;;;6.03;3.88;;;2.40;99.90;;;;;;4983612;28;20053;-64
2023/01/22 12:01:44;;;;;;;7.78;4.10;;;2.40;99.90;;;;;;4986041;28;20216;-63
2023/01/22 12:04:46;;;;;;;7.53;4.40;;;2.50;99.90;;;;;;4987644;28;20116;-63
2023/01/22 12:07:41;;;;;;;7.97;4.07;;;2.50;99.90;;;;;;4907762;29;20086;-63
2023/01/22 12:10:41;;;;;;;5.00;3.53;;;2.50;99.90;;;;;;4979215;28;20521;-63
2023/01/22 12:13:25;;;;;;;4.72;4.25;;;2.50;99.90;;;;;;4969486;28;20062;-63
2023/01/22 12:16:16;;;;;;;4.90;3.92;;;2.50;99.90;;;;;;4986000;28;20061;-63
2023/01/22 12:19:17;;;;;;;5.15;3.28;;;2.50;99.90;;;;;;4983523;28;20050;-63
2023/01/22 12:22:06;;;;;;;9.27;4.43;;;2.50;99.90;;;;;;4950873;28;20185;-63
2023/01/22 12:24:38;;;;;;;8.05;4.68;;;2.60;99.90;;;;;;4965351;28;20074;-63
2023/01/22 12:27:23;;;;;;;8.88;4.43;;;2.60;99.90;;;;;;4985415;28;20045;-63
2023/01/22 12:30:06;;;;;;;8.38;4.47;;;2.60;99.90;;;;;;4987008;28;20058;-64
2023/01/22 12:32:36;;;;;;;6.45;5.07;;;2.60;99.90;;;;;;4983416;28;20062;-63
2023/01/22 12:35:18;;;;;;;5.77;4.20;;;2.60;99.90;;;;;;4987503;28;20086;-63
2023/01/22 12:37:44;;;;;;;7.60;4.60;;;2.60;99.90;;;;;;4986055;28;20477;-63
2023/01/22 12:40:52;;;;;;;5.75;4.55;;;2.60;99.90;;;;;;4952652;28;20050;-64
2023/01/22 12:43:28;;;;;;;7.13;4.53;;;2.60;99.90;;;;;;4978151;28;20050;-63
2023/01/22 12:46:01;;;;;;;10.18;4.47;;;2.60;99.90;;;;;;4967829;28;20044;-63
2023/01/22 12:48:45;;;;;;;5.85;4.00;;;2.60;99.90;;;;;;4982064;28;20043;-64
2023/01/22 12:51:41;;;;;;;8.23;4.57;;;2.60;99.90;;;;;;4986514;28;20108;-63
2023/01/22 12:54:23;;;;;;;8.80;4.00;;;2.60;99.90;;;;;;4964553;28;20516;-63
2023/01/22 12:56:52;;;;;;;6.57;3.15;;;2.60;99.90;;;;;;4985674;28;20052;-63
2023/01/22 12:59:43;;;;;;;4.80;3.17;;;2.70;99.90;;;;;;4986669;28;20168;-63
2023/01/22 13:02:34;;;;;;;9.38;3.97;;;2.60;99.90;;;;;;4983372;28;20043;-63
2023/01/22 13:05:32;;;;;;;10.73;5.00;;;2.70;99.90;;;;;;4986278;28;20066;-63
2023/01/22 13:08:17;;;;;;;6.30;3.33;;;2.70;99.90;;;;;;4952416;28;20054;-63
2023/01/22 13:11:00;;;;;;;4.93;3.58;;;2.70;99.90;;;;;;4985711;28;20050;-64
2023/01/22 13:13:41;;;;;;;9.43;3.92;;;2.70;99.90;;;;;;4978307;28;20576;-63
2023/01/22 13:16:19;;;;;;;5.30;2.90;;;2.70;99.90;;;;;;4969232;28;20134;-63
2023/01/22 13:18:52;;;;;;;8.88;4.45;;;2.80;99.90;;;;;;4978544;28;20053;-63
2023/01/22 13:21:24;;;;;;;8.52;4.03;;;2.80;99.90;;;;;;4968836;28;20496;-63